Terminal Aerodrome Forecast
Issued by NWS Grand Forks, ND

Home | Current Version | Previous Version | Graphics & Text | Print | Product List | Glossary On
Versions: 1 2 3 4 5 6 7 8 9 10 11 12 13 14 15 16 17 18 19
377
FTUS43 KFGF 232320
TAFGFK
TAF
KGFK 232320Z 2400/2424 VRB06KT P6SM VCTS BKN060CB
     FM240100 23009KT P6SM BKN060
     FM240300 26006KT P6SM BKN150
     FM241300 29010KT P6SM FEW250=

USA.gov is the U.S. government's official web portal to all federal, state and local government web resources and services.